sensor_id;sensor_type;location;lat;lon;timestamp;P1;durP1;ratioP1;P2;durP2;ratioP2
56760;SDS011;42633;44.494;11.356;2023-04-06T00:01:50;8.20;;;4.70;;
56760;SDS011;42633;44.494;11.356;2023-04-06T00:04:56;8.30;;;4.15;;
56760;SDS011;42633;44.494;11.356;2023-04-06T00:08:03;14.68;;;5.32;;
56760;SDS011;42633;44.494;11.356;2023-04-06T00:11:08;9.00;;;4.70;;
56760;SDS011;42633;44.494;11.356;2023-04-06T00:14:13;7.53;;;4.45;;
56760;SDS011;42633;44.494;11.356;2023-04-06T00:17:19;8.02;;;4.38;;
56760;SDS011;42633;44.494;11.356;2023-04-06T00:20:24;10.73;;;5.45;;
56760;SDS011;42633;44.494;11.356;2023-04-06T00:23:29;6.05;;;4.15;;
56760;SDS011;42633;44.494;11.356;2023-04-06T00:26:33;9.90;;;4.97;;
56760;SDS011;42633;44.494;11.356;2023-04-06T00:29:39;8.07;;;4.45;;
56760;SDS011;42633;44.494;11.356;2023-04-06T00:32:44;11.05;;;4.80;;
56760;SDS011;42633;44.494;11.356;2023-04-06T00:35:49;20.80;;;5.40;;
56760;SDS011;42633;44.494;11.356;2023-04-06T00:38:55;9.90;;;4.75;;
56760;SDS011;42633;44.494;11.356;2023-04-06T00:42:10;10.02;;;4.88;;
56760;SDS011;42633;44.494;11.356;2023-04-06T00:45:19;6.72;;;4.03;;
56760;SDS011;42633;44.494;11.356;2023-04-06T00:48:23;5.68;;;3.75;;
56760;SDS011;42633;44.494;11.356;2023-04-06T00:51:28;5.65;;;4.05;;
56760;SDS011;42633;44.494;11.356;2023-04-06T00:54:32;5.65;;;3.63;;
56760;SDS011;42633;44.494;11.356;2023-04-06T00:57:38;6.45;;;4.28;;
56760;SDS011;42633;44.494;11.356;2023-04-06T01:00:45;8.70;;;4.35;;
56760;SDS011;42633;44.494;11.356;2023-04-06T01:03:54;8.80;;;4.10;;
56760;SDS011;42633;44.494;11.356;2023-04-06T01:07:01;9.10;;;3.92;;
56760;SDS011;42633;44.494;11.356;2023-04-06T01:10:24;8.50;;;4.38;;
56760;SDS011;42633;44.494;11.356;2023-04-06T01:13:33;6.82;;;4.38;;
56760;SDS011;42633;44.494;11.356;2023-04-06T01:16:43;7.25;;;3.72;;
56760;SDS011;42633;44.494;11.356;2023-04-06T01:19:51;5.55;;;3.78;;
56760;SDS011;42633;44.494;11.356;2023-04-06T01:23:03;4.97;;;3.58;;
56760;SDS011;42633;44.494;11.356;2023-04-06T01:26:09;5.70;;;3.97;;
56760;SDS011;42633;44.494;11.356;2023-04-06T01:29:14;8.10;;;4.20;;
56760;SDS011;42633;44.494;11.356;2023-04-06T01:32:19;10.45;;;4.78;;
56760;SDS011;42633;44.494;11.356;2023-04-06T01:35:28;7.05;;;4.25;;
56760;SDS011;42633;44.494;11.356;2023-04-06T01:38:53;6.43;;;3.78;;
56760;SDS011;42633;44.494;11.356;2023-04-06T01:42:05;9.75;;;4.03;;
56760;SDS011;42633;44.494;11.356;2023-04-06T01:45:13;7.75;;;4.00;;
56760;SDS011;42633;44.494;11.356;2023-04-06T01:48:18;6.35;;;3.95;;
56760;SDS011;42633;44.494;11.356;2023-04-06T01:51:23;7.25;;;4.18;;
56760;SDS011;42633;44.494;11.356;2023-04-06T01:54:33;6.07;;;4.18;;
56760;SDS011;42633;44.494;11.356;2023-04-06T01:57:47;5.15;;;3.97;;
56760;SDS011;42633;44.494;11.356;2023-04-06T02:01:01;12.75;;;4.13;;
56760;SDS011;42633;44.494;11.356;2023-04-06T02:04:13;6.20;;;3.15;;
56760;SDS011;42633;44.494;11.356;2023-04-06T02:07:18;6.90;;;4.30;;
56760;SDS011;42633;44.494;11.356;2023-04-06T02:10:24;7.05;;;3.25;;
56760;SDS011;42633;44.494;11.356;2023-04-06T02:13:29;6.38;;;3.40;;
56760;SDS011;42633;44.494;11.356;2023-04-06T02:16:34;8.48;;;4.03;;
56760;SDS011;42633;44.494;11.356;2023-04-06T02:19:38;6.00;;;3.70;;
56760;SDS011;42633;44.494;11.356;2023-04-06T02:22:43;6.18;;;3.22;;
56760;SDS011;42633;44.494;11.356;2023-04-06T02:25:48;7.95;;;3.58;;
56760;SDS011;42633;44.494;11.356;2023-04-06T02:28:52;7.03;;;3.40;;
56760;SDS011;42633;44.494;11.356;2023-04-06T02:31:57;7.32;;;4.00;;
56760;SDS011;42633;44.494;11.356;2023-04-06T02:35:02;5.53;;;3.40;;
56760;SDS011;42633;44.494;11.356;2023-04-06T02:38:08;7.28;;;4.18;;
56760;SDS011;42633;44.494;11.356;2023-04-06T02:41:13;7.18;;;3.67;;
56760;SDS011;42633;44.494;11.356;2023-04-06T02:44:18;5.60;;;3.55;;
56760;SDS011;42633;44.494;11.356;2023-04-06T02:47:27;5.75;;;3.33;;
56760;SDS011;42633;44.494;11.356;2023-04-06T02:50:32;5.75;;;3.22;;
56760;SDS011;42633;44.494;11.356;2023-04-06T02:53:41;6.63;;;3.47;;
56760;SDS011;42633;44.494;11.356;2023-04-06T02:56:45;6.68;;;3.05;;
56760;SDS011;42633;44.494;11.356;2023-04-06T02:59:53;5.57;;;3.63;;
56760;SDS011;42633;44.494;11.356;2023-04-06T03:03:03;6.30;;;3.58;;
56760;SDS011;42633;44.494;11.356;2023-04-06T03:06:08;10.00;;;3.65;;
56760;SDS011;42633;44.494;11.356;2023-04-06T03:09:13;8.85;;;3.50;;
56760;SDS011;42633;44.494;11.356;2023-04-06T03:12:24;6.63;;;3.88;;
56760;SDS011;42633;44.494;11.356;2023-04-06T03:15:48;5.68;;;3.50;;
56760;SDS011;42633;44.494;11.356;2023-04-06T03:18:56;7.53;;;4.40;;
56760;SDS011;42633;44.494;11.356;2023-04-06T03:22:00;7.70;;;3.28;;
56760;SDS011;42633;44.494;11.356;2023-04-06T03:25:06;6.25;;;3.38;;
56760;SDS011;42633;44.494;11.356;2023-04-06T03:28:12;4.63;;;3.75;;
56760;SDS011;42633;44.494;11.356;2023-04-06T03:31:26;6.35;;;3.58;;
56760;SDS011;42633;44.494;11.356;2023-04-06T03:34:36;7.28;;;4.53;;
56760;SDS011;42633;44.494;11.356;2023-04-06T03:37:43;6.25;;;3.13;;
56760;SDS011;42633;44.494;11.356;2023-04-06T03:40:48;7.82;;;3.80;;
56760;SDS011;42633;44.494;11.356;2023-04-06T03:43:53;5.32;;;3.25;;
56760;SDS011;42633;44.494;11.356;2023-04-06T03:47:05;5.22;;;3.42;;
56760;SDS011;42633;44.494;11.356;2023-04-06T03:50:10;6.95;;;3.17;;
56760;SDS011;42633;44.494;11.356;2023-04-06T03:53:14;7.65;;;3.78;;
56760;SDS011;42633;44.494;11.356;2023-04-06T03:56:19;5.55;;;3.75;;
56760;SDS011;42633;44.494;11.356;2023-04-06T03:59:24;9.57;;;4.03;;
56760;SDS011;42633;44.494;11.356;2023-04-06T04:02:31;6.63;;;3.90;;
56760;SDS011;42633;44.494;11.356;2023-04-06T04:05:36;7.65;;;4.25;;
56760;SDS011;42633;44.494;11.356;2023-04-06T04:08:40;9.60;;;5.00;;
56760;SDS011;42633;44.494;11.356;2023-04-06T04:11:49;15.32;;;6.88;;
56760;SDS011;42633;44.494;11.356;2023-04-06T04:14:54;12.70;;;5.78;;
56760;SDS011;42633;44.494;11.356;2023-04-06T04:18:00;11.95;;;6.22;;
56760;SDS011;42633;44.494;11.356;2023-04-06T04:21:05;9.00;;;5.65;;
56760;SDS011;42633;44.494;11.356;2023-04-06T04:24:11;7.60;;;3.42;;
56760;SDS011;42633;44.494;11.356;2023-04-06T04:27:17;8.45;;;4.18;;
56760;SDS011;42633;44.494;11.356;2023-04-06T04:30:22;9.43;;;4.40;;
56760;SDS011;42633;44.494;11.356;2023-04-06T04:33:28;10.73;;;5.00;;
56760;SDS011;42633;44.494;11.356;2023-04-06T04:36:34;9.35;;;5.43;;
56760;SDS011;42633;44.494;11.356;2023-04-06T04:39:45;9.13;;;4.70;;
56760;SDS011;42633;44.494;11.356;2023-04-06T04:42:55;7.90;;;3.90;;
56760;SDS011;42633;44.494;11.356;2023-04-06T04:46:07;13.27;;;4.35;;
56760;SDS011;42633;44.494;11.356;2023-04-06T04:49:22;12.13;;;4.47;;
56760;SDS011;42633;44.494;11.356;2023-04-06T04:52:29;14.65;;;4.70;;
56760;SDS011;42633;44.494;11.356;2023-04-06T04:55:55;9.40;;;4.57;;
56760;SDS011;42633;44.494;11.356;2023-04-06T04:59:03;17.27;;;5.05;;
56760;SDS011;42633;44.494;11.356;2023-04-06T05:02:11;16.60;;;4.85;;
56760;SDS011;42633;44.494;11.356;2023-04-06T05:05:35;19.13;;;5.15;;
56760;SDS011;42633;44.494;11.356;2023-04-06T05:08:44;13.98;;;4.93;;
56760;SDS011;42633;44.494;11.356;2023-04-06T05:11:56;9.27;;;3.88;;
56760;SDS011;42633;44.494;11.356;2023-04-06T05:15:02;13.95;;;5.45;;
56760;SDS011;42633;44.494;11.356;2023-04-06T05:18:09;11.35;;;4.97;;
56760;SDS011;42633;44.494;11.356;2023-04-06T05:21:14;7.88;;;4.00;;
56760;SDS011;42633;44.494;11.356;2023-04-06T05:24:33;9.55;;;5.10;;
56760;SDS011;42633;44.494;11.356;2023-04-06T05:27:41;11.35;;;4.10;;
56760;SDS011;42633;44.494;11.356;2023-04-06T05:30:56;14.05;;;4.95;;
56760;SDS011;42633;44.494;11.356;2023-04-06T05:34:03;9.05;;;4.40;;
56760;SDS011;42633;44.494;11.356;2023-04-06T05:37:11;5.53;;;3.95;;
56760;SDS011;42633;44.494;11.356;2023-04-06T05:40:16;8.95;;;4.60;;
56760;SDS011;42633;44.494;11.356;2023-04-06T05:43:23;8.98;;;4.90;;
56760;SDS011;42633;44.494;11.356;2023-04-06T05:46:32;11.55;;;4.63;;
56760;SDS011;42633;44.494;11.356;2023-04-06T05:49:38;8.20;;;4.65;;
56760;SDS011;42633;44.494;11.356;2023-04-06T05:52:52;21.25;;;6.80;;
56760;SDS011;42633;44.494;11.356;2023-04-06T05:56:02;16.90;;;6.30;;
56760;SDS011;42633;44.494;11.356;2023-04-06T05:59:07;9.38;;;5.63;;
56760;SDS011;42633;44.494;11.356;2023-04-06T06:02:12;8.45;;;4.78;;
56760;SDS011;42633;44.494;11.356;2023-04-06T06:05:20;13.07;;;4.65;;
56760;SDS011;42633;44.494;11.356;2023-04-06T06:08:27;11.73;;;4.85;;
56760;SDS011;42633;44.494;11.356;2023-04-06T06:11:32;14.25;;;6.65;;
56760;SDS011;42633;44.494;11.356;2023-04-06T06:14:39;10.10;;;4.40;;
56760;SDS011;42633;44.494;11.356;2023-04-06T06:17:44;9.05;;;3.70;;
56760;SDS011;42633;44.494;11.356;2023-04-06T06:20:50;7.63;;;4.13;;
56760;SDS011;42633;44.494;11.356;2023-04-06T06:23:58;11.75;;;3.60;;
56760;SDS011;42633;44.494;11.356;2023-04-06T06:27:06;9.90;;;4.38;;
56760;SDS011;42633;44.494;11.356;2023-04-06T06:30:13;11.77;;;4.88;;
56760;SDS011;42633;44.494;11.356;2023-04-06T06:33:20;8.13;;;5.20;;
56760;SDS011;42633;44.494;11.356;2023-04-06T06:36:27;23.55;;;5.80;;
56760;SDS011;42633;44.494;11.356;2023-04-06T06:39:34;13.20;;;6.43;;
56760;SDS011;42633;44.494;11.356;2023-04-06T06:42:40;18.85;;;7.13;;
56760;SDS011;42633;44.494;11.356;2023-04-06T06:46:04;17.38;;;8.27;;
56760;SDS011;42633;44.494;11.356;2023-04-06T06:49:09;25.83;;;8.90;;
56760;SDS011;42633;44.494;11.356;2023-04-06T06:52:17;14.80;;;7.47;;
56760;SDS011;42633;44.494;11.356;2023-04-06T06:55:22;13.40;;;7.75;;
56760;SDS011;42633;44.494;11.356;2023-04-06T06:58:26;18.60;;;8.52;;
56760;SDS011;42633;44.494;11.356;2023-04-06T07:01:34;14.90;;;7.05;;
56760;SDS011;42633;44.494;11.356;2023-04-06T07:04:40;16.75;;;7.20;;
56760;SDS011;42633;44.494;11.356;2023-04-06T07:07:45;16.20;;;7.32;;
56760;SDS011;42633;44.494;11.356;2023-04-06T07:10:50;11.52;;;7.22;;
56760;SDS011;42633;44.494;11.356;2023-04-06T07:14:21;17.13;;;8.27;;
56760;SDS011;42633;44.494;11.356;2023-04-06T07:17:31;17.02;;;8.75;;
56760;SDS011;42633;44.494;11.356;2023-04-06T07:20:36;15.25;;;7.95;;
56760;SDS011;42633;44.494;11.356;2023-04-06T07:23:41;14.30;;;8.75;;
56760;SDS011;42633;44.494;11.356;2023-04-06T07:26:49;15.95;;;7.28;;
56760;SDS011;42633;44.494;11.356;2023-04-06T07:29:59;16.42;;;7.68;;
56760;SDS011;42633;44.494;11.356;2023-04-06T07:33:03;17.13;;;8.75;;
56760;SDS011;42633;44.494;11.356;2023-04-06T07:36:10;12.38;;;7.13;;
56760;SDS011;42633;44.494;11.356;2023-04-06T07:39:15;9.38;;;6.82;;
56760;SDS011;42633;44.494;11.356;2023-04-06T07:42:20;18.45;;;8.02;;
56760;SDS011;42633;44.494;11.356;2023-04-06T07:45:28;15.25;;;8.45;;
56760;SDS011;42633;44.494;11.356;2023-04-06T07:48:33;9.77;;;5.68;;
56760;SDS011;42633;44.494;11.356;2023-04-06T07:51:38;11.75;;;6.38;;
56760;SDS011;42633;44.494;11.356;2023-04-06T07:54:43;18.08;;;7.10;;
56760;SDS011;42633;44.494;11.356;2023-04-06T07:57:52;11.27;;;6.80;;
56760;SDS011;42633;44.494;11.356;2023-04-06T08:00:56;14.32;;;6.70;;
56760;SDS011;42633;44.494;11.356;2023-04-06T08:04:01;13.38;;;8.18;;
56760;SDS011;42633;44.494;11.356;2023-04-06T08:07:06;21.02;;;6.53;;
56760;SDS011;42633;44.494;11.356;2023-04-06T08:10:11;17.05;;;6.32;;
56760;SDS011;42633;44.494;11.356;2023-04-06T08:13:15;12.88;;;6.10;;
56760;SDS011;42633;44.494;11.356;2023-04-06T08:16:21;9.52;;;5.40;;
56760;SDS011;42633;44.494;11.356;2023-04-06T08:19:25;14.02;;;6.88;;
56760;SDS011;42633;44.494;11.356;2023-04-06T08:22:30;13.48;;;7.05;;
56760;SDS011;42633;44.494;11.356;2023-04-06T08:25:36;12.02;;;5.90;;
56760;SDS011;42633;44.494;11.356;2023-04-06T08:28:41;12.80;;;6.72;;
56760;SDS011;42633;44.494;11.356;2023-04-06T08:31:55;10.85;;;5.93;;
56760;SDS011;42633;44.494;11.356;2023-04-06T08:35:00;17.00;;;6.35;;
56760;SDS011;42633;44.494;11.356;2023-04-06T08:38:07;13.18;;;7.03;;
56760;SDS011;42633;44.494;11.356;2023-04-06T08:41:13;14.57;;;6.55;;
56760;SDS011;42633;44.494;11.356;2023-04-06T08:44:18;9.63;;;5.90;;
56760;SDS011;42633;44.494;11.356;2023-04-06T08:47:23;11.35;;;6.28;;
56760;SDS011;42633;44.494;11.356;2023-04-06T08:50:29;10.77;;;5.93;;
56760;SDS011;42633;44.494;11.356;2023-04-06T08:53:34;9.95;;;5.57;;
56760;SDS011;42633;44.494;11.356;2023-04-06T08:56:51;10.80;;;5.78;;
56760;SDS011;42633;44.494;11.356;2023-04-06T09:00:20;6.93;;;4.40;;
56760;SDS011;42633;44.494;11.356;2023-04-06T09:03:25;12.40;;;6.45;;
56760;SDS011;42633;44.494;11.356;2023-04-06T09:10:05;10.13;;;4.10;;
56760;SDS011;42633;44.494;11.356;2023-04-06T09:13:16;11.05;;;5.03;;
56760;SDS011;42633;44.494;11.356;2023-04-06T09:16:22;7.82;;;4.25;;
56760;SDS011;42633;44.494;11.356;2023-04-06T09:19:48;8.77;;;5.35;;
56760;SDS011;42633;44.494;11.356;2023-04-06T09:22:57;9.23;;;5.10;;
56760;SDS011;42633;44.494;11.356;2023-04-06T09:26:32;9.60;;;4.55;;
56760;SDS011;42633;44.494;11.356;2023-04-06T09:30:04;13.90;;;5.72;;
56760;SDS011;42633;44.494;11.356;2023-04-06T09:33:41;8.45;;;5.18;;
56760;SDS011;42633;44.494;11.356;2023-04-06T09:37:14;11.00;;;6.47;;
56760;SDS011;42633;44.494;11.356;2023-04-06T09:40:31;10.07;;;5.47;;
56760;SDS011;42633;44.494;11.356;2023-04-06T09:43:37;7.90;;;4.90;;
56760;SDS011;42633;44.494;11.356;2023-04-06T09:49:50;10.88;;;5.50;;
56760;SDS011;42633;44.494;11.356;2023-04-06T09:52:56;14.23;;;6.53;;
56760;SDS011;42633;44.494;11.356;2023-04-06T09:56:03;7.30;;;5.10;;
56760;SDS011;42633;44.494;11.356;2023-04-06T09:59:40;8.38;;;6.10;;
56760;SDS011;42633;44.494;11.356;2023-04-06T10:03:34;12.23;;;6.38;;
56760;SDS011;42633;44.494;11.356;2023-04-06T10:06:47;15.38;;;6.50;;
56760;SDS011;42633;44.494;11.356;2023-04-06T10:10:05;13.85;;;6.97;;
56760;SDS011;42633;44.494;11.356;2023-04-06T10:13:24;10.00;;;6.43;;
56760;SDS011;42633;44.494;11.356;2023-04-06T10:16:40;13.77;;;6.97;;
56760;SDS011;42633;44.494;11.356;2023-04-06T10:19:49;10.45;;;7.15;;
56760;SDS011;42633;44.494;11.356;2023-04-06T10:23:44;9.02;;;5.95;;
56760;SDS011;42633;44.494;11.356;2023-04-06T10:27:03;9.20;;;5.45;;
56760;SDS011;42633;44.494;11.356;2023-04-06T10:30:33;61.05;;;27.85;;
56760;SDS011;42633;44.494;11.356;2023-04-06T10:33:40;22.92;;;12.50;;
56760;SDS011;42633;44.494;11.356;2023-04-06T10:36:48;9.35;;;6.03;;
56760;SDS011;42633;44.494;11.356;2023-04-06T10:39:52;10.10;;;6.60;;
56760;SDS011;42633;44.494;11.356;2023-04-06T10:43:12;10.90;;;7.10;;
56760;SDS011;42633;44.494;11.356;2023-04-06T10:46:26;21.02;;;9.18;;
56760;SDS011;42633;44.494;11.356;2023-04-06T10:49:34;10.10;;;7.57;;
56760;SDS011;42633;44.494;11.356;2023-04-06T10:52:38;11.30;;;5.97;;
56760;SDS011;42633;44.494;11.356;2023-04-06T10:55:43;15.27;;;6.28;;
56760;SDS011;42633;44.494;11.356;2023-04-06T10:58:52;8.80;;;5.38;;
56760;SDS011;42633;44.494;11.356;2023-04-06T11:02:02;10.20;;;5.93;;
56760;SDS011;42633;44.494;11.356;2023-04-06T11:05:11;9.75;;;6.30;;
56760;SDS011;42633;44.494;11.356;2023-04-06T11:08:30;7.30;;;5.60;;
56760;SDS011;42633;44.494;11.356;2023-04-06T11:11:38;10.18;;;6.18;;
56760;SDS011;42633;44.494;11.356;2023-04-06T11:14:54;13.30;;;7.82;;
56760;SDS011;42633;44.494;11.356;2023-04-06T11:18:07;7.50;;;5.82;;
56760;SDS011;42633;44.494;11.356;2023-04-06T11:21:40;9.98;;;6.05;;
56760;SDS011;42633;44.494;11.356;2023-04-06T11:38:16;13.73;;;7.38;;
56760;SDS011;42633;44.494;11.356;2023-04-06T11:42:29;10.48;;;7.35;;
56760;SDS011;42633;44.494;11.356;2023-04-06T11:57:07;14.35;;;7.75;;
56760;SDS011;42633;44.494;11.356;2023-04-06T12:00:25;8.70;;;6.22;;
56760;SDS011;42633;44.494;11.356;2023-04-06T12:03:33;24.38;;;7.80;;
56760;SDS011;42633;44.494;11.356;2023-04-06T12:06:58;14.55;;;7.82;;
56760;SDS011;42633;44.494;11.356;2023-04-06T12:11:52;11.55;;;7.15;;
56760;SDS011;42633;44.494;11.356;2023-04-06T12:15:17;10.02;;;7.43;;
56760;SDS011;42633;44.494;11.356;2023-04-06T12:18:39;10.18;;;6.38;;
56760;SDS011;42633;44.494;11.356;2023-04-06T12:25:43;10.73;;;7.32;;
56760;SDS011;42633;44.494;11.356;2023-04-06T12:28:55;10.23;;;6.93;;
56760;SDS011;42633;44.494;11.356;2023-04-06T12:40:37;11.73;;;6.78;;
56760;SDS011;42633;44.494;11.356;2023-04-06T12:44:01;10.85;;;7.28;;
56760;SDS011;42633;44.494;11.356;2023-04-06T12:47:32;10.20;;;6.88;;
56760;SDS011;42633;44.494;11.356;2023-04-06T12:55:08;10.45;;;7.05;;
56760;SDS011;42633;44.494;11.356;2023-04-06T12:58:22;12.85;;;7.03;;
56760;SDS011;42633;44.494;11.356;2023-04-06T13:01:34;14.18;;;7.68;;
56760;SDS011;42633;44.494;11.356;2023-04-06T13:04:48;9.73;;;7.03;;
56760;SDS011;42633;44.494;11.356;2023-04-06T13:07:57;10.98;;;7.30;;
56760;SDS011;42633;44.494;11.356;2023-04-06T13:11:04;10.48;;;7.30;;
56760;SDS011;42633;44.494;11.356;2023-04-06T13:14:44;13.27;;;8.05;;
56760;SDS011;42633;44.494;11.356;2023-04-06T13:18:14;12.98;;;7.80;;
56760;SDS011;42633;44.494;11.356;2023-04-06T13:25:44;13.77;;;8.55;;
56760;SDS011;42633;44.494;11.356;2023-04-06T13:28:57;14.95;;;8.73;;
56760;SDS011;42633;44.494;11.356;2023-04-06T13:32:17;15.40;;;8.88;;
56760;SDS011;42633;44.494;11.356;2023-04-06T13:35:58;11.60;;;7.90;;
56760;SDS011;42633;44.494;11.356;2023-04-06T13:39:06;11.15;;;7.28;;
56760;SDS011;42633;44.494;11.356;2023-04-06T13:42:21;13.85;;;7.68;;
56760;SDS011;42633;44.494;11.356;2023-04-06T13:46:15;14.52;;;8.85;;
56760;SDS011;42633;44.494;11.356;2023-04-06T13:53:57;12.90;;;7.88;;
56760;SDS011;42633;44.494;11.356;2023-04-06T14:09:38;12.55;;;6.63;;
56760;SDS011;42633;44.494;11.356;2023-04-06T14:17:36;10.45;;;7.55;;
56760;SDS011;42633;44.494;11.356;2023-04-06T14:20:59;12.73;;;7.15;;
56760;SDS011;42633;44.494;11.356;2023-04-06T14:27:57;14.43;;;7.18;;
56760;SDS011;42633;44.494;11.356;2023-04-06T14:31:10;11.40;;;7.68;;
56760;SDS011;42633;44.494;11.356;2023-04-06T14:34:32;10.85;;;7.80;;
56760;SDS011;42633;44.494;11.356;2023-04-06T14:37:38;10.73;;;7.80;;
56760;SDS011;42633;44.494;11.356;2023-04-06T14:40:46;13.43;;;9.65;;
56760;SDS011;42633;44.494;11.356;2023-04-06T14:47:03;13.25;;;8.35;;
56760;SDS011;42633;44.494;11.356;2023-04-06T14:50:33;10.67;;;7.17;;
56760;SDS011;42633;44.494;11.356;2023-04-06T14:53:42;8.70;;;6.85;;
56760;SDS011;42633;44.494;11.356;2023-04-06T14:56:58;10.15;;;6.95;;
56760;SDS011;42633;44.494;11.356;2023-04-06T15:07:54;13.98;;;7.20;;
56760;SDS011;42633;44.494;11.356;2023-04-06T15:10:59;13.85;;;6.55;;
56760;SDS011;42633;44.494;11.356;2023-04-06T15:14:34;10.93;;;6.65;;
56760;SDS011;42633;44.494;11.356;2023-04-06T15:17:47;13.10;;;6.35;;
56760;SDS011;42633;44.494;11.356;2023-04-06T15:20:59;10.60;;;7.38;;
56760;SDS011;42633;44.494;11.356;2023-04-06T15:24:16;12.43;;;8.48;;
56760;SDS011;42633;44.494;11.356;2023-04-06T15:27:24;13.13;;;7.15;;
56760;SDS011;42633;44.494;11.356;2023-04-06T15:30:35;13.52;;;8.15;;
56760;SDS011;42633;44.494;11.356;2023-04-06T15:38:52;9.07;;;6.95;;
56760;SDS011;42633;44.494;11.356;2023-04-06T15:41:51;10.68;;;6.15;;
56760;SDS011;42633;44.494;11.356;2023-04-06T15:44:56;10.38;;;7.10;;
56760;SDS011;42633;44.494;11.356;2023-04-06T15:48:01;10.85;;;7.18;;
56760;SDS011;42633;44.494;11.356;2023-04-06T15:55:11;10.38;;;7.25;;
56760;SDS011;42633;44.494;11.356;2023-04-06T15:58:22;10.07;;;7.40;;
56760;SDS011;42633;44.494;11.356;2023-04-06T16:01:39;13.80;;;7.65;;
56760;SDS011;42633;44.494;11.356;2023-04-06T16:04:44;15.02;;;8.60;;
56760;SDS011;42633;44.494;11.356;2023-04-06T16:07:54;10.13;;;7.80;;
56760;SDS011;42633;44.494;11.356;2023-04-06T16:11:13;13.43;;;6.72;;
56760;SDS011;42633;44.494;11.356;2023-04-06T16:14:19;10.25;;;7.90;;
56760;SDS011;42633;44.494;11.356;2023-04-06T16:17:25;10.65;;;8.10;;
56760;SDS011;42633;44.494;11.356;2023-04-06T16:20:34;15.52;;;7.65;;
56760;SDS011;42633;44.494;11.356;2023-04-06T16:23:56;11.80;;;7.60;;
56760;SDS011;42633;44.494;11.356;2023-04-06T16:27:01;16.27;;;7.50;;
56760;SDS011;42633;44.494;11.356;2023-04-06T16:30:10;10.23;;;7.40;;
56760;SDS011;42633;44.494;11.356;2023-04-06T16:33:16;13.48;;;8.65;;
56760;SDS011;42633;44.494;11.356;2023-04-06T16:36:30;14.43;;;7.88;;
56760;SDS011;42633;44.494;11.356;2023-04-06T16:39:36;18.30;;;9.20;;
56760;SDS011;42633;44.494;11.356;2023-04-06T16:42:44;14.98;;;8.45;;
56760;SDS011;42633;44.494;11.356;2023-04-06T16:50:04;15.02;;;8.38;;
56760;SDS011;42633;44.494;11.356;2023-04-06T16:58:05;16.75;;;8.63;;
56760;SDS011;42633;44.494;11.356;2023-04-06T17:01:24;9.98;;;7.20;;
56760;SDS011;42633;44.494;11.356;2023-04-06T17:10:46;10.98;;;7.07;;
56760;SDS011;42633;44.494;11.356;2023-04-06T17:20:11;11.90;;;7.50;;
56760;SDS011;42633;44.494;11.356;2023-04-06T17:24:11;10.02;;;7.28;;
56760;SDS011;42633;44.494;11.356;2023-04-06T17:36:36;12.35;;;7.82;;
56760;SDS011;42633;44.494;11.356;2023-04-06T17:48:32;21.83;;;15.23;;
56760;SDS011;42633;44.494;11.356;2023-04-06T18:00:01;15.88;;;9.57;;
56760;SDS011;42633;44.494;11.356;2023-04-06T18:08:08;18.50;;;9.52;;
56760;SDS011;42633;44.494;11.356;2023-04-06T18:11:29;20.08;;;9.90;;
56760;SDS011;42633;44.494;11.356;2023-04-06T18:23:44;12.13;;;8.05;;
56760;SDS011;42633;44.494;11.356;2023-04-06T18:27:01;13.98;;;8.90;;
56760;SDS011;42633;44.494;11.356;2023-04-06T18:31:28;12.75;;;8.13;;
56760;SDS011;42633;44.494;11.356;2023-04-06T18:40:56;11.27;;;7.72;;
56760;SDS011;42633;44.494;11.356;2023-04-06T18:44:08;13.98;;;7.57;;
56760;SDS011;42633;44.494;11.356;2023-04-06T18:52:11;11.13;;;7.47;;
56760;SDS011;42633;44.494;11.356;2023-04-06T18:55:25;20.10;;;11.27;;
56760;SDS011;42633;44.494;11.356;2023-04-06T18:58:34;17.65;;;10.32;;
56760;SDS011;42633;44.494;11.356;2023-04-06T19:01:42;15.68;;;9.30;;
56760;SDS011;42633;44.494;11.356;2023-04-06T19:05:04;14.60;;;8.40;;
56760;SDS011;42633;44.494;11.356;2023-04-06T19:17:18;16.30;;;9.27;;
56760;SDS011;42633;44.494;11.356;2023-04-06T19:31:07;16.63;;;7.90;;
56760;SDS011;42633;44.494;11.356;2023-04-06T19:34:50;11.93;;;7.65;;
56760;SDS011;42633;44.494;11.356;2023-04-06T19:38:54;13.05;;;7.45;;
56760;SDS011;42633;44.494;11.356;2023-04-06T19:42:09;17.95;;;9.63;;
56760;SDS011;42633;44.494;11.356;2023-04-06T19:45:44;14.60;;;7.22;;
56760;SDS011;42633;44.494;11.356;2023-04-06T19:49:11;16.02;;;8.10;;
56760;SDS011;42633;44.494;11.356;2023-04-06T19:52:24;17.58;;;8.10;;
56760;SDS011;42633;44.494;11.356;2023-04-06T19:55:38;14.65;;;8.20;;
56760;SDS011;42633;44.494;11.356;2023-04-06T19:58:46;12.93;;;8.48;;
56760;SDS011;42633;44.494;11.356;2023-04-06T20:01:53;13.52;;;7.97;;
56760;SDS011;42633;44.494;11.356;2023-04-06T20:05:05;10.00;;;7.57;;
56760;SDS011;42633;44.494;11.356;2023-04-06T20:08:10;12.80;;;7.53;;
56760;SDS011;42633;44.494;11.356;2023-04-06T20:11:38;13.70;;;8.32;;
56760;SDS011;42633;44.494;11.356;2023-04-06T20:14:46;11.23;;;6.75;;
56760;SDS011;42633;44.494;11.356;2023-04-06T20:18:02;12.98;;;8.25;;
56760;SDS011;42633;44.494;11.356;2023-04-06T20:21:21;19.38;;;9.07;;
56760;SDS011;42633;44.494;11.356;2023-04-06T20:24:31;16.13;;;9.90;;
56760;SDS011;42633;44.494;11.356;2023-04-06T20:27:36;13.93;;;9.93;;
56760;SDS011;42633;44.494;11.356;2023-04-06T20:30:43;18.50;;;11.25;;
56760;SDS011;42633;44.494;11.356;2023-04-06T20:42:52;10.98;;;7.80;;
56760;SDS011;42633;44.494;11.356;2023-04-06T20:46:05;13.15;;;7.88;;
56760;SDS011;42633;44.494;11.356;2023-04-06T20:49:12;18.75;;;8.93;;
56760;SDS011;42633;44.494;11.356;2023-04-06T20:52:17;16.13;;;9.55;;
56760;SDS011;42633;44.494;11.356;2023-04-06T20:55:27;13.18;;;8.15;;
56760;SDS011;42633;44.494;11.356;2023-04-06T20:58:32;13.70;;;7.65;;
56760;SDS011;42633;44.494;11.356;2023-04-06T21:01:36;11.40;;;7.22;;
56760;SDS011;42633;44.494;11.356;2023-04-06T21:04:44;12.13;;;7.87;;
56760;SDS011;42633;44.494;11.356;2023-04-06T21:07:49;11.80;;;7.90;;
56760;SDS011;42633;44.494;11.356;2023-04-06T21:10:56;14.75;;;8.48;;
56760;SDS011;42633;44.494;11.356;2023-04-06T21:14:01;12.90;;;7.60;;
56760;SDS011;42633;44.494;11.356;2023-04-06T21:21:03;12.77;;;8.18;;
56760;SDS011;42633;44.494;11.356;2023-04-06T21:24:17;16.70;;;9.40;;
56760;SDS011;42633;44.494;11.356;2023-04-06T21:27:28;14.70;;;9.45;;
56760;SDS011;42633;44.494;11.356;2023-04-06T21:30:34;15.50;;;8.93;;
56760;SDS011;42633;44.494;11.356;2023-04-06T21:33:40;11.93;;;8.15;;
56760;SDS011;42633;44.494;11.356;2023-04-06T21:36:45;9.32;;;7.03;;
56760;SDS011;42633;44.494;11.356;2023-04-06T21:39:50;13.80;;;6.93;;
56760;SDS011;42633;44.494;11.356;2023-04-06T21:42:57;13.97;;;6.67;;
56760;SDS011;42633;44.494;11.356;2023-04-06T21:46:02;13.30;;;7.30;;
56760;SDS011;42633;44.494;11.356;2023-04-06T21:49:08;10.48;;;7.53;;
56760;SDS011;42633;44.494;11.356;2023-04-06T21:52:15;16.17;;;9.15;;
56760;SDS011;42633;44.494;11.356;2023-04-06T21:55:24;14.80;;;7.65;;
56760;SDS011;42633;44.494;11.356;2023-04-06T21:58:31;11.95;;;7.30;;
56760;SDS011;42633;44.494;11.356;2023-04-06T22:01:36;16.50;;;8.40;;
56760;SDS011;42633;44.494;11.356;2023-04-06T22:04:41;10.52;;;6.70;;
56760;SDS011;42633;44.494;11.356;2023-04-06T22:07:47;12.00;;;7.15;;
56760;SDS011;42633;44.494;11.356;2023-04-06T22:10:58;12.38;;;7.65;;